Time;durP1;ratioP1;P1;durP2;ratioP2;P2;SDS_P1;SDS_P2;PMS_P1;PMS_P2;Temp;Humidity;BMP_temperature;BMP_pressure;BME280_temperature;BME280_humidity;BME280_pressure;Samples;Min_cycle;Max_cycle;Signal;HPM_P1;HPM_P2
2023/02/10 00:01:32;;;;;;;30.08;16.77;;;4.90;99.90;;;;;;4905186;29;20535;-70
2023/02/10 00:03:59;;;;;;;24.83;16.63;;;4.90;99.90;;;;;;4883384;29;20206;-70
2023/02/10 00:06:26;;;;;;;25.08;16.10;;;4.90;99.90;;;;;;4898701;29;20233;-70
2023/02/10 00:09:00;;;;;;;26.65;17.48;;;4.90;99.90;;;;;;4898930;29;20169;-70
2023/02/10 00:14:20;;;;;;;31.20;17.35;;;4.90;99.90;;;;;;4898598;29;20240;-71
2023/02/10 00:16:51;;;;;;;29.30;17.45;;;5.00;99.90;;;;;;4883031;29;20602;-70
2023/02/10 00:19:18;;;;;;;25.77;16.33;;;4.90;99.90;;;;;;4883277;29;20265;-70
2023/02/10 00:21:50;;;;;;;28.67;18.13;;;4.90;99.90;;;;;;4899651;29;20178;-70
2023/02/10 00:24:16;;;;;;;26.63;17.42;;;4.90;99.90;;;;;;4883182;29;20161;-70
2023/02/10 00:26:45;;;;;;;26.13;17.23;;;4.90;99.90;;;;;;4904746;29;20755;-70
2023/02/10 00:29:11;;;;;;;25.50;17.38;;;5.00;99.90;;;;;;4882891;29;20565;-70
2023/02/10 00:31:38;;;;;;;27.60;18.42;;;4.90;99.90;;;;;;4899444;29;20581;-70
2023/02/10 00:34:04;;;;;;;27.63;18.55;;;5.00;99.90;;;;;;4898375;29;20170;-70
2023/02/10 00:36:33;;;;;;;28.80;18.80;;;5.00;99.90;;;;;;4891735;29;20207;-70
2023/02/10 00:39:03;;;;;;;27.05;17.23;;;5.00;99.90;;;;;;4897751;29;20185;-71
2023/02/10 00:41:31;;;;;;;28.70;16.85;;;5.00;99.90;;;;;;4898475;29;20282;-70
2023/02/10 00:43:57;;;;;;;30.83;18.33;;;5.00;99.90;;;;;;4898317;29;20272;-70
2023/02/10 00:46:23;;;;;;;30.60;19.60;;;5.00;99.90;;;;;;4907220;29;20481;-70
2023/02/10 00:48:54;;;;;;;30.58;18.50;;;5.00;99.90;;;;;;4882731;29;20197;-70
2023/02/10 00:51:22;;;;;;;34.40;19.75;;;5.00;99.90;;;;;;4867701;29;20238;-70
2023/02/10 00:53:52;;;;;;;30.65;18.30;;;5.00;99.90;;;;;;4866911;29;20210;-70
2023/02/10 00:56:19;;;;;;;29.55;19.02;;;5.00;99.90;;;;;;4912684;29;20292;-70
2023/02/10 00:58:49;;;;;;;33.03;20.27;;;5.00;99.90;;;;;;4900975;29;20174;-70
2023/02/10 01:01:15;;;;;;;30.90;19.65;;;5.00;99.90;;;;;;4909093;29;20214;-70
2023/02/10 01:03:41;;;;;;;29.10;18.83;;;5.00;99.90;;;;;;4897714;29;20680;-70
2023/02/10 01:06:12;;;;;;;29.88;18.38;;;5.00;99.90;;;;;;4882479;29;20261;-70
2023/02/10 01:08:39;;;;;;;29.10;18.20;;;5.00;99.90;;;;;;4897873;29;20645;-70
2023/02/10 01:11:12;;;;;;;31.15;19.20;;;5.00;99.90;;;;;;4898652;29;20697;-70
2023/02/10 01:13:42;;;;;;;28.38;19.58;;;5.00;99.90;;;;;;4897718;29;20170;-70
2023/02/10 01:16:16;;;;;;;33.05;19.83;;;5.00;99.90;;;;;;4922356;29;20300;-70
2023/02/10 01:18:44;;;;;;;32.38;18.17;;;5.00;99.90;;;;;;4897632;29;20161;-70
2023/02/10 01:21:15;;;;;;;32.72;19.30;;;5.00;99.90;;;;;;4897377;29;20289;-70
2023/02/10 01:23:45;;;;;;;32.45;20.10;;;5.00;99.90;;;;;;4897590;29;20252;-70
2023/02/10 01:26:12;;;;;;;29.80;18.90;;;5.00;99.90;;;;;;4910767;29;20572;-70
2023/02/10 01:28:39;;;;;;;26.88;18.95;;;5.00;99.90;;;;;;4916301;29;20173;-70
2023/02/10 01:31:30;;;;;;;28.77;19.25;;;5.00;99.90;;;;;;4885210;29;20627;-70
2023/02/10 01:33:56;;;;;;;29.23;19.35;;;5.00;99.90;;;;;;4900570;29;20253;-70
2023/02/10 01:36:26;;;;;;;26.97;17.80;;;5.00;99.90;;;;;;4886597;29;20235;-70
2023/02/10 01:38:54;;;;;;;30.30;18.63;;;5.00;99.90;;;;;;4881657;29;20800;-70
2023/02/10 01:41:26;;;;;;;25.60;18.02;;;5.00;99.90;;;;;;4881754;29;20176;-70
2023/02/10 01:44:18;;;;;;;24.45;16.63;;;5.00;99.90;;;;;;4897351;29;20173;-70
2023/02/10 01:46:48;;;;;;;30.40;19.35;;;5.00;99.90;;;;;;4898192;29;20214;-69
2023/02/10 01:49:21;;;;;;;30.85;18.65;;;5.00;99.90;;;;;;4897225;29;20632;-69
2023/02/10 01:52:08;;;;;;;30.08;18.75;;;5.00;99.90;;;;;;4881470;29;20342;-70
2023/02/10 01:54:52;;;;;;;27.17;17.65;;;5.00;99.90;;;;;;4896830;29;20202;-69
2023/02/10 01:57:21;;;;;;;29.70;18.25;;;5.00;99.90;;;;;;4896446;29;20206;-69
2023/02/10 01:59:48;;;;;;;32.20;19.85;;;5.00;99.90;;;;;;4897132;29;20249;-69
2023/02/10 02:02:17;;;;;;;32.40;20.00;;;5.00;99.90;;;;;;4881457;29;20177;-69
2023/02/10 02:04:52;;;;;;;35.20;17.98;;;5.00;99.90;;;;;;4897082;29;20547;-70
2023/02/10 02:07:25;;;;;;;32.50;20.05;;;5.00;99.90;;;;;;4881156;29;20586;-70
2023/02/10 02:09:55;;;;;;;28.55;18.67;;;5.00;99.90;;;;;;4896865;29;20170;-69
2023/02/10 02:12:35;;;;;;;26.02;17.40;;;5.00;99.90;;;;;;4896780;29;20208;-69
2023/02/10 02:15:30;;;;;;;28.45;19.48;;;5.00;99.90;;;;;;4881322;29;20237;-69
2023/02/10 02:18:17;;;;;;;30.83;20.02;;;5.00;99.90;;;;;;4896775;29;20166;-70
2023/02/10 02:20:59;;;;;;;31.27;19.75;;;5.00;99.90;;;;;;4896725;29;20575;-69
2023/02/10 02:23:58;;;;;;;27.25;18.40;;;5.10;99.90;;;;;;4896750;29;20170;-70
2023/02/10 02:26:46;;;;;;;31.52;19.27;;;5.10;99.90;;;;;;4911714;29;20265;-70
2023/02/10 02:33:31;;;;;;;33.13;19.20;;;5.00;99.90;;;;;;4903603;29;20192;-69
2023/02/10 02:36:07;;;;;;;28.17;18.75;;;5.00;99.90;;;;;;4881000;29;20225;-69
2023/02/10 02:38:40;;;;;;;28.40;18.17;;;5.00;99.90;;;;;;4896929;29;20697;-69
2023/02/10 02:41:10;;;;;;;28.52;17.38;;;5.00;99.90;;;;;;4896536;29;20602;-69
2023/02/10 02:43:38;;;;;;;33.17;18.83;;;5.00;99.90;;;;;;4896815;29;20799;-69
2023/02/10 02:46:09;;;;;;;26.58;17.90;;;5.00;99.90;;;;;;4895586;29;20205;-69
2023/02/10 02:49:02;;;;;;;26.35;17.50;;;5.10;99.90;;;;;;4881186;29;20202;-70
2023/02/10 02:51:46;;;;;;;24.65;16.38;;;5.00;99.90;;;;;;4897774;29;20199;-69
2023/02/10 02:54:46;;;;;;;31.85;19.10;;;5.10;99.90;;;;;;4896291;29;20163;-70
2023/02/10 02:57:18;;;;;;;26.83;17.73;;;5.10;99.90;;;;;;4869713;29;20325;-69
2023/02/10 02:59:52;;;;;;;25.25;17.00;;;5.10;99.90;;;;;;4878226;29;20171;-69
2023/02/10 03:02:20;;;;;;;29.80;17.48;;;5.00;99.90;;;;;;4891457;29;20238;-69
2023/02/10 03:04:48;;;;;;;27.90;18.90;;;5.00;99.90;;;;;;4865673;29;20182;-69
2023/02/10 03:07:14;;;;;;;31.48;18.88;;;5.00;99.90;;;;;;4880160;29;20695;-69
2023/02/10 03:09:42;;;;;;;25.10;17.40;;;5.00;99.90;;;;;;4899207;29;20174;-69
2023/02/10 03:12:13;;;;;;;29.40;18.98;;;5.00;99.90;;;;;;4901216;29;20277;-69
2023/02/10 03:14:42;;;;;;;28.00;16.50;;;5.00;99.90;;;;;;4884820;29;20190;-69
2023/02/10 03:17:08;;;;;;;30.27;18.08;;;5.00;99.90;;;;;;4884357;29;20270;-69
2023/02/10 03:19:34;;;;;;;28.33;17.95;;;5.00;99.90;;;;;;4899650;29;20201;-70
2023/02/10 03:22:01;;;;;;;27.83;18.02;;;5.00;99.90;;;;;;4899841;29;20170;-70
2023/02/10 03:24:29;;;;;;;27.20;17.80;;;5.00;99.90;;;;;;4901468;29;20174;-69
2023/02/10 03:26:57;;;;;;;29.35;18.50;;;5.00;99.90;;;;;;4904308;29;20209;-69
2023/02/10 03:29:23;;;;;;;25.38;17.83;;;5.00;99.90;;;;;;4899742;29;20162;-70
2023/02/10 03:31:50;;;;;;;29.67;17.88;;;5.00;99.90;;;;;;4899668;29;20542;-69
2023/02/10 03:34:16;;;;;;;26.02;18.20;;;5.00;99.90;;;;;;4913711;29;20212;-70
2023/02/10 03:36:42;;;;;;;28.92;18.40;;;5.00;99.90;;;;;;4919593;29;20566;-70
2023/02/10 03:39:08;;;;;;;30.65;18.10;;;5.00;99.90;;;;;;4918201;29;20210;-69
2023/02/10 03:41:34;;;;;;;26.63;18.33;;;5.00;99.90;;;;;;4902578;29;20214;-70
2023/02/10 03:44:03;;;;;;;27.07;17.10;;;5.00;99.90;;;;;;4902784;29;20221;-69
2023/02/10 03:46:31;;;;;;;27.40;18.92;;;4.90;99.90;;;;;;4901948;29;20535;-69
2023/02/10 03:48:58;;;;;;;33.60;20.10;;;4.90;99.90;;;;;;4934241;29;20196;-69
2023/02/10 03:51:24;;;;;;;30.38;19.10;;;4.90;99.90;;;;;;4902471;29;20468;-69
2023/02/10 03:53:50;;;;;;;31.40;19.33;;;4.90;99.90;;;;;;4918203;29;20532;-72
2023/02/10 03:56:16;;;;;;;29.30;18.10;;;5.00;99.90;;;;;;4903653;29;20205;-74
2023/02/10 03:58:44;;;;;;;30.60;19.05;;;5.00;99.90;;;;;;4900328;29;20398;-75
2023/02/10 04:01:13;;;;;;;34.15;19.15;;;5.00;99.90;;;;;;4883951;29;20174;-74
2023/02/10 04:03:42;;;;;;;27.77;18.42;;;5.00;99.90;;;;;;4900139;29;20297;-74
2023/02/10 04:06:12;;;;;;;27.60;18.58;;;5.00;99.90;;;;;;4900195;29;20206;-74
2023/02/10 04:08:41;;;;;;;29.30;18.48;;;5.00;99.90;;;;;;4899268;29;20832;-74
2023/02/10 04:11:09;;;;;;;28.02;17.92;;;5.00;99.90;;;;;;4914877;29;20174;-74
2023/02/10 04:13:36;;;;;;;30.20;19.20;;;5.00;99.90;;;;;;4899222;29;20249;-74
2023/02/10 04:16:08;;;;;;;27.83;18.30;;;5.00;99.90;;;;;;4883425;29;20222;-74
2023/02/10 04:18:38;;;;;;;29.02;18.23;;;4.90;99.90;;;;;;4883286;29;20173;-74
2023/02/10 04:21:06;;;;;;;31.20;19.70;;;4.90;99.90;;;;;;4898515;29;20277;-75
2023/02/10 04:23:34;;;;;;;27.88;18.90;;;4.90;99.90;;;;;;4883692;29;20261;-75
2023/02/10 04:26:01;;;;;;;29.73;18.17;;;5.00;99.90;;;;;;4867844;29;20217;-75
2023/02/10 04:28:27;;;;;;;24.60;17.27;;;4.90;99.90;;;;;;4883254;29;20237;-75
2023/02/10 04:31:00;;;;;;;30.17;19.40;;;4.90;99.90;;;;;;4914370;29;20174;-75
2023/02/10 04:33:29;;;;;;;29.83;19.30;;;4.90;99.90;;;;;;4899018;29;20186;-75
2023/02/10 04:35:57;;;;;;;28.83;19.00;;;5.00;99.90;;;;;;4897664;29;20244;-74
2023/02/10 04:38:24;;;;;;;26.25;17.92;;;4.90;99.90;;;;;;4881314;29;20607;-75
2023/02/10 04:40:54;;;;;;;37.00;19.90;;;4.90;99.90;;;;;;4896753;29;20742;-74
2023/02/10 04:43:25;;;;;;;30.45;18.70;;;4.90;99.90;;;;;;4881257;29;20193;-74
2023/02/10 04:45:51;;;;;;;29.38;18.05;;;4.90;99.90;;;;;;4897339;29;20197;-74
2023/02/10 04:48:17;;;;;;;27.60;18.30;;;4.90;99.90;;;;;;4897603;29;20245;-74
2023/02/10 04:50:45;;;;;;;29.23;20.02;;;4.90;99.90;;;;;;4897105;29;20546;-75
2023/02/10 04:53:13;;;;;;;37.05;18.90;;;4.90;99.90;;;;;;4898265;29;20571;-75
2023/02/10 04:55:49;;;;;;;30.42;17.58;;;4.90;99.90;;;;;;4898604;29;20566;-75
2023/02/10 04:58:15;;;;;;;29.23;19.35;;;4.90;99.90;;;;;;4882814;29;20716;-75
2023/02/10 05:00:45;;;;;;;26.63;18.73;;;4.90;99.90;;;;;;4899227;29;20237;-74
2023/02/10 05:03:11;;;;;;;31.17;19.25;;;4.90;99.90;;;;;;4882593;29;20177;-75
2023/02/10 05:05:40;;;;;;;27.75;17.95;;;4.90;99.90;;;;;;4898092;29;20277;-74
2023/02/10 05:08:06;;;;;;;27.08;17.92;;;4.90;99.90;;;;;;4882574;29;20264;-75
2023/02/10 05:10:32;;;;;;;28.75;18.98;;;4.90;99.90;;;;;;4898013;29;20265;-75
2023/02/10 05:12:58;;;;;;;30.23;17.98;;;4.90;99.90;;;;;;4899145;29;20197;-74
2023/02/10 05:15:29;;;;;;;29.17;18.87;;;4.90;99.90;;;;;;4897560;29;20730;-74
2023/02/10 05:17:55;;;;;;;29.75;18.90;;;4.90;99.90;;;;;;4897753;29;20469;-75
2023/02/10 05:20:21;;;;;;;27.77;18.05;;;4.90;99.90;;;;;;4913546;29;20218;-75
2023/02/10 05:22:47;;;;;;;31.63;19.60;;;4.90;99.90;;;;;;4882061;29;20193;-75
2023/02/10 05:25:13;;;;;;;29.60;18.93;;;4.90;99.90;;;;;;4897722;29;20242;-75
2023/02/10 05:27:41;;;;;;;28.50;19.17;;;4.90;99.90;;;;;;4897529;29;20825;-74
2023/02/10 05:30:09;;;;;;;32.15;20.50;;;4.90;99.90;;;;;;4898506;29;20529;-74
2023/02/10 05:32:35;;;;;;;28.75;19.67;;;4.90;99.90;;;;;;4896403;29;20162;-75
2023/02/10 05:35:02;;;;;;;28.08;17.85;;;4.90;99.90;;;;;;4897508;29;20224;-75
2023/02/10 05:37:28;;;;;;;31.60;19.60;;;4.90;99.90;;;;;;4913212;29;20209;-75
2023/02/10 05:39:54;;;;;;;28.37;17.80;;;4.90;99.90;;;;;;4896552;29;20253;-75
2023/02/10 05:42:20;;;;;;;27.77;18.50;;;4.90;99.90;;;;;;4898849;29;20484;-75
2023/02/10 05:44:51;;;;;;;31.75;18.02;;;4.90;99.90;;;;;;4897617;29;20648;-75
2023/02/10 05:47:21;;;;;;;33.77;20.40;;;4.90;99.90;;;;;;4897698;29;20225;-75
2023/02/10 05:49:47;;;;;;;33.00;18.48;;;4.80;99.90;;;;;;4881688;29;20432;-75
2023/02/10 05:52:14;;;;;;;31.30;17.57;;;4.90;99.90;;;;;;4897035;29;20182;-72
2023/02/10 05:54:40;;;;;;;28.77;17.50;;;4.90;99.90;;;;;;4881456;29;20453;-74
2023/02/10 05:57:08;;;;;;;30.60;18.35;;;4.80;99.90;;;;;;4912199;29;20250;-74
2023/02/10 05:59:34;;;;;;;28.98;17.60;;;4.90;99.90;;;;;;4912599;29;20163;-74
2023/02/10 06:02:00;;;;;;;29.33;17.95;;;4.90;99.90;;;;;;4881790;29;20257;-74
2023/02/10 06:04:27;;;;;;;26.98;17.88;;;4.80;99.90;;;;;;4898331;29;20622;-75
2023/02/10 06:06:54;;;;;;;27.50;18.33;;;4.80;99.90;;;;;;4896793;29;20590;-74
2023/02/10 06:09:22;;;;;;;26.92;17.73;;;4.80;99.90;;;;;;4898216;29;20655;-74
2023/02/10 06:11:51;;;;;;;26.55;16.80;;;4.80;99.90;;;;;;4881821;29;20562;-74
2023/02/10 06:14:18;;;;;;;26.05;17.48;;;4.80;99.90;;;;;;4897196;29;20182;-74
2023/02/10 06:16:44;;;;;;;24.08;16.42;;;4.80;99.90;;;;;;4896905;29;20265;-74
2023/02/10 06:19:12;;;;;;;24.35;17.05;;;4.80;99.90;;;;;;4881444;29;20181;-74
2023/02/10 06:21:38;;;;;;;29.25;18.40;;;4.80;99.90;;;;;;4881414;29;20169;-74
2023/02/10 06:24:04;;;;;;;29.20;19.57;;;4.80;99.90;;;;;;4865679;29;20184;-74
2023/02/10 06:26:31;;;;;;;27.45;16.30;;;4.80;99.90;;;;;;4896580;29;20688;-74
2023/02/10 06:28:57;;;;;;;27.33;18.10;;;4.80;99.90;;;;;;4912487;29;20205;-74
2023/02/10 06:31:25;;;;;;;27.75;17.65;;;4.80;99.90;;;;;;4896744;29;20647;-74
2023/02/10 06:33:51;;;;;;;29.73;16.67;;;4.80;99.90;;;;;;4897783;29;20189;-77
2023/02/10 06:36:17;;;;;;;27.77;17.07;;;4.80;99.90;;;;;;4913741;29;20268;-75
2023/02/10 06:38:43;;;;;;;25.65;15.55;;;4.80;99.90;;;;;;4896109;29;21222;-72
2023/02/10 06:41:14;;;;;;;25.85;17.30;;;4.80;99.90;;;;;;4881950;29;20565;-73
2023/02/10 06:43:40;;;;;;;26.15;18.10;;;4.80;99.90;;;;;;4897402;29;20225;-77
2023/02/10 06:46:06;;;;;;;29.73;17.90;;;4.80;99.90;;;;;;4900013;29;20249;-76
2023/02/10 06:48:33;;;;;;;29.10;19.08;;;4.80;99.90;;;;;;4901232;29;20775;-76
2023/02/10 06:51:01;;;;;;;29.08;17.63;;;4.80;99.90;;;;;;4883980;29;20213;-77
2023/02/10 06:53:32;;;;;;;26.73;17.48;;;4.80;99.90;;;;;;4900518;29;20204;-77
2023/02/10 06:55:58;;;;;;;29.35;17.67;;;4.80;99.90;;;;;;4883520;29;20228;-75
2023/02/10 06:58:24;;;;;;;29.40;17.45;;;4.80;99.90;;;;;;4899402;29;20182;-72
2023/02/10 07:00:54;;;;;;;28.90;17.80;;;4.80;99.90;;;;;;4900846;29;20610;-72
2023/02/10 07:03:22;;;;;;;28.40;17.60;;;4.90;99.90;;;;;;4901102;29;20523;-72
2023/02/10 07:05:49;;;;;;;34.17;18.93;;;4.80;99.90;;;;;;4915382;29;20642;-73
2023/02/10 07:08:20;;;;;;;30.42;18.58;;;4.80;99.90;;;;;;4884851;29;20398;-72
2023/02/10 07:10:46;;;;;;;25.92;16.27;;;4.80;99.90;;;;;;4915668;29;20165;-72
2023/02/10 07:13:19;;;;;;;31.10;19.48;;;4.80;99.90;;;;;;4899903;29;20193;-72
2023/02/10 07:15:47;;;;;;;26.52;17.23;;;4.90;99.90;;;;;;4914423;29;20256;-72
2023/02/10 07:18:13;;;;;;;32.03;19.38;;;4.80;99.90;;;;;;4884577;29;20205;-72
2023/02/10 07:20:39;;;;;;;29.23;17.95;;;4.80;99.90;;;;;;4899930;29;20265;-72
2023/02/10 07:23:05;;;;;;;28.30;18.95;;;4.80;99.90;;;;;;4900032;29;20190;-72
2023/02/10 07:25:34;;;;;;;30.67;17.27;;;4.80;99.90;;;;;;4883777;29;20189;-72
2023/02/10 07:28:00;;;;;;;29.13;18.17;;;4.80;99.90;;;;;;4883758;29;20576;-72
2023/02/10 07:30:29;;;;;;;29.05;18.40;;;4.80;99.90;;;;;;4900759;29;20174;-72
2023/02/10 07:32:59;;;;;;;29.27;18.65;;;4.80;99.90;;;;;;4900758;29;20166;-72
2023/02/10 07:35:27;;;;;;;31.58;18.95;;;4.80;99.90;;;;;;4884048;29;20177;-72
2023/02/10 07:37:53;;;;;;;30.50;19.00;;;4.80;99.90;;;;;;4898824;29;20178;-72
2023/02/10 07:40:22;;;;;;;29.70;19.30;;;4.80;99.90;;;;;;4900727;29;20213;-72
2023/02/10 07:42:50;;;;;;;33.17;20.15;;;4.80;99.90;;;;;;4899486;29;20186;-72
2023/02/10 07:45:36;;;;;;;31.65;19.92;;;4.80;99.90;;;;;;4899489;29;20296;-73
2023/02/10 07:48:05;;;;;;;33.47;20.58;;;4.80;99.90;;;;;;4899272;29;20253;-72
2023/02/10 07:50:36;;;;;;;35.90;19.92;;;4.80;99.90;;;;;;4900559;29;20214;-72
2023/02/10 07:53:03;;;;;;;31.30;18.92;;;4.80;99.90;;;;;;4899135;29;20592;-74
2023/02/10 07:55:28;;;;;;;29.80;19.67;;;4.80;99.90;;;;;;4888201;29;20218;-74
2023/02/10 07:57:54;;;;;;;28.03;18.43;;;4.80;99.90;;;;;;4904907;29;20185;-73
2023/02/10 08:00:21;;;;;;;31.57;18.93;;;4.80;99.90;;;;;;4902412;29;20552;-73
2023/02/10 08:02:47;;;;;;;29.90;19.13;;;4.80;99.90;;;;;;4918035;29;20496;-73
2023/02/10 08:05:13;;;;;;;30.97;18.83;;;4.90;99.90;;;;;;4907530;29;20668;-73
2023/02/10 08:07:39;;;;;;;31.58;19.05;;;4.80;99.90;;;;;;4883093;29;20490;-74
2023/02/10 08:10:05;;;;;;;35.27;19.10;;;4.80;99.90;;;;;;4902050;29;20229;-75
2023/02/10 08:12:33;;;;;;;32.75;20.63;;;4.80;99.90;;;;;;4899111;29;20437;-75
2023/02/10 08:15:02;;;;;;;33.80;19.73;;;4.80;99.90;;;;;;4916296;29;20173;-75
2023/02/10 08:17:28;;;;;;;28.90;18.08;;;4.80;99.90;;;;;;4898340;29;20205;-75
2023/02/10 08:19:54;;;;;;;30.63;19.50;;;4.80;99.90;;;;;;4867210;29;20547;-75
2023/02/10 08:22:20;;;;;;;28.27;18.87;;;4.80;99.90;;;;;;4905814;29;20185;-75
2023/02/10 08:24:46;;;;;;;32.10;18.93;;;4.80;99.90;;;;;;4902871;29;20457;-73
2023/02/10 08:27:12;;;;;;;30.02;18.83;;;4.80;99.90;;;;;;4885347;29;20541;-73
2023/02/10 08:29:38;;;;;;;33.40;18.40;;;4.80;99.90;;;;;;4917677;29;20178;-74
2023/02/10 08:32:07;;;;;;;33.70;19.65;;;4.80;99.90;;;;;;4901862;29;20410;-74
2023/02/10 08:34:38;;;;;;;40.22;20.02;;;4.80;99.90;;;;;;4915213;29;20165;-74
2023/02/10 08:37:04;;;;;;;32.55;20.23;;;4.80;99.90;;;;;;4899780;29;20241;-74
2023/02/10 08:39:35;;;;;;;33.60;19.90;;;4.80;99.90;;;;;;4899076;29;20201;-74
2023/02/10 08:42:01;;;;;;;30.45;19.85;;;4.80;99.90;;;;;;4897946;29;20197;-73
2023/02/10 08:44:27;;;;;;;35.58;20.00;;;4.80;99.90;;;;;;4883224;29;20193;-75
2023/02/10 08:46:53;;;;;;;28.90;18.63;;;4.80;99.90;;;;;;4879210;29;20296;-74
2023/02/10 08:49:22;;;;;;;31.73;19.98;;;4.80;99.90;;;;;;4902808;29;20237;-73
2023/02/10 08:51:48;;;;;;;33.65;21.60;;;4.80;99.90;;;;;;4898633;29;20650;-72
2023/02/10 08:54:18;;;;;;;33.67;20.77;;;4.80;99.90;;;;;;4880231;29;20182;-72
2023/02/10 08:56:44;;;;;;;36.15;20.10;;;4.80;99.90;;;;;;4908803;29;20230;-72
2023/02/10 08:59:10;;;;;;;34.03;19.90;;;4.80;99.90;;;;;;4896131;29;20206;-73
2023/02/10 09:01:36;;;;;;;31.60;19.95;;;4.80;99.90;;;;;;4893898;29;20277;-73
2023/02/10 09:04:02;;;;;;;36.30;20.98;;;4.80;99.90;;;;;;4863889;29;20186;-73
2023/02/10 09:06:38;;;;;;;31.42;18.20;;;4.80;99.90;;;;;;4896420;29;20743;-73
2023/02/10 09:09:27;;;;;;;33.63;19.45;;;4.80;99.90;;;;;;4895783;29;21784;-73
2023/02/10 09:11:54;;;;;;;30.77;19.30;;;4.80;99.90;;;;;;4879605;29;20226;-73
2023/02/10 09:14:23;;;;;;;33.25;19.35;;;4.80;99.90;;;;;;4892136;29;20182;-73
2023/02/10 09:16:51;;;;;;;32.87;19.80;;;4.80;99.90;;;;;;4895147;29;20214;-72
2023/02/10 09:19:20;;;;;;;32.78;21.25;;;4.80;99.90;;;;;;4909890;29;20431;-73
2023/02/10 09:21:50;;;;;;;29.83;20.30;;;4.80;99.90;;;;;;4883348;29;20194;-73
2023/02/10 09:24:16;;;;;;;31.35;19.63;;;4.80;99.90;;;;;;4892928;29;20227;-73
2023/02/10 09:26:43;;;;;;;34.20;20.90;;;4.90;99.90;;;;;;4897136;29;20243;-74
2023/02/10 09:29:10;;;;;;;28.38;19.30;;;4.90;99.90;;;;;;4877371;29;20277;-73
2023/02/10 09:31:36;;;;;;;32.50;20.45;;;4.90;99.90;;;;;;4909188;29;20536;-74
2023/02/10 09:34:03;;;;;;;33.80;21.42;;;4.90;99.90;;;;;;4907579;29;20200;-73
2023/02/10 09:36:29;;;;;;;29.42;19.83;;;4.90;99.90;;;;;;4898627;29;20258;-73
2023/02/10 09:38:56;;;;;;;34.92;21.13;;;4.90;99.90;;;;;;4913160;29;20184;-73
2023/02/10 09:41:33;;;;;;;36.40;20.30;;;4.90;99.90;;;;;;4907428;29;20201;-74
2023/02/10 09:44:15;;;;;;;34.53;20.85;;;4.90;99.90;;;;;;4883833;29;20209;-74
2023/02/10 09:47:04;;;;;;;39.33;22.55;;;4.90;99.90;;;;;;4888760;29;20757;-74
2023/02/10 09:49:52;;;;;;;38.92;22.50;;;4.90;99.90;;;;;;4884723;29;20185;-73
2023/02/10 09:52:21;;;;;;;39.58;23.00;;;5.00;99.90;;;;;;4899065;29;20193;-73
2023/02/10 09:54:47;;;;;;;38.45;22.38;;;5.00;99.90;;;;;;4885225;29;20297;-73
2023/02/10 09:57:43;;;;;;;35.65;22.00;;;5.00;99.90;;;;;;4902807;29;20273;-74
2023/02/10 10:00:29;;;;;;;39.58;22.25;;;5.00;99.90;;;;;;4892605;29;20186;-73
2023/02/10 10:02:58;;;;;;;35.42;22.15;;;5.00;99.90;;;;;;4886221;29;20181;-74
2023/02/10 10:05:27;;;;;;;41.10;24.00;;;5.00;99.90;;;;;;4891784;29;20251;-73
2023/02/10 10:07:55;;;;;;;37.47;22.25;;;5.00;99.90;;;;;;4896077;29;20216;-74
2023/02/10 10:10:32;;;;;;;40.90;23.60;;;5.00;99.90;;;;;;4913204;29;20300;-73
2023/02/10 10:13:00;;;;;;;34.35;21.80;;;5.00;99.90;;;;;;4882021;29;20185;-73
2023/02/10 10:15:39;;;;;;;40.65;24.38;;;5.10;99.90;;;;;;4880140;29;20636;-73
2023/02/10 10:18:15;;;;;;;38.83;22.35;;;5.10;99.90;;;;;;4878465;29;20274;-74
2023/02/10 10:21:05;;;;;;;36.03;22.88;;;5.10;99.90;;;;;;4902739;29;20185;-74
2023/02/10 10:23:57;;;;;;;39.13;22.38;;;5.10;99.90;;;;;;4920728;29;20336;-73
2023/02/10 10:26:39;;;;;;;35.47;21.33;;;5.10;99.90;;;;;;4880214;29;20217;-73
2023/02/10 10:29:17;;;;;;;40.55;23.27;;;5.10;99.90;;;;;;4894000;29;20181;-73
2023/02/10 10:31:45;;;;;;;36.78;22.67;;;5.10;99.90;;;;;;4877155;29;20193;-73
2023/02/10 10:34:19;;;;;;;41.22;23.00;;;5.10;99.90;;;;;;4892036;29;20208;-73
2023/02/10 10:36:52;;;;;;;38.15;22.77;;;5.10;99.90;;;;;;4877561;29;20273;-73
2023/02/10 10:39:48;;;;;;;37.72;23.33;;;5.20;99.90;;;;;;4895057;29;20177;-73
2023/02/10 10:42:20;;;;;;;45.17;23.10;;;5.20;99.90;;;;;;4897029;29;20211;-73
2023/02/10 10:44:54;;;;;;;39.22;23.10;;;5.20;99.90;;;;;;4895715;29;20648;-74
2023/02/10 10:47:36;;;;;;;37.33;23.23;;;5.20;99.90;;;;;;4892972;29;20295;-75
2023/02/10 10:50:03;;;;;;;34.58;22.27;;;5.20;99.90;;;;;;4894590;29;20211;-74
2023/02/10 10:52:36;;;;;;;38.90;21.90;;;5.20;99.90;;;;;;4907763;29;20195;-73
2023/02/10 10:55:14;;;;;;;42.38;23.63;;;5.20;99.90;;;;;;4907513;29;20194;-73
2023/02/10 10:57:40;;;;;;;37.17;23.90;;;5.20;99.90;;;;;;4895453;29;20211;-73
2023/02/10 11:00:21;;;;;;;36.47;22.75;;;5.20;99.90;;;;;;4878902;29;20563;-73
2023/02/10 11:03:00;;;;;;;41.00;23.38;;;5.30;99.90;;;;;;4878147;29;20221;-72
2023/02/10 11:05:29;;;;;;;35.58;21.88;;;5.30;99.90;;;;;;4885872;29;20195;-74
2023/02/10 11:07:57;;;;;;;36.47;21.92;;;5.30;99.90;;;;;;4893409;29;20210;-73
2023/02/10 11:10:50;;;;;;;40.92;23.05;;;5.30;99.90;;;;;;4920203;29;20653;-73
2023/02/10 11:13:28;;;;;;;37.53;21.92;;;5.30;99.90;;;;;;4892402;29;20664;-75
2023/02/10 11:16:02;;;;;;;40.92;23.05;;;5.30;99.90;;;;;;4878204;29;20680;-77
2023/02/10 11:18:30;;;;;;;45.28;23.63;;;5.30;99.90;;;;;;4878308;29;20257;-75
2023/02/10 11:21:09;;;;;;;43.05;24.20;;;5.30;99.90;;;;;;4890356;29;20197;-77
2023/02/10 11:23:54;;;;;;;38.58;23.67;;;5.40;99.90;;;;;;4885727;29;20250;-74
2023/02/10 11:26:25;;;;;;;39.90;22.77;;;5.40;99.90;;;;;;4900031;29;20228;-75
2023/02/10 11:28:52;;;;;;;38.25;21.33;;;5.50;99.90;;;;;;4901265;29;20242;-75
2023/02/10 11:31:37;;;;;;;38.03;21.42;;;5.50;99.90;;;;;;4882269;29;20233;-74
2023/02/10 11:34:31;;;;;;;40.70;23.33;;;5.50;99.90;;;;;;4922750;29;20577;-72
2023/02/10 11:37:11;;;;;;;39.55;21.10;;;5.50;99.90;;;;;;4882144;29;20254;-72
2023/02/10 11:39:45;;;;;;;42.50;23.73;;;5.60;99.90;;;;;;4881109;29;20560;-72
2023/02/10 11:42:20;;;;;;;38.80;23.13;;;5.60;99.90;;;;;;4882234;29;20170;-72
2023/02/10 11:45:12;;;;;;;36.67;21.55;;;5.60;99.90;;;;;;4898879;29;20186;-73
2023/02/10 11:47:38;;;;;;;43.00;22.90;;;5.60;99.90;;;;;;4881912;29;20289;-75
2023/02/10 11:50:30;;;;;;;35.35;21.55;;;5.60;99.90;;;;;;4898375;29;20243;-75
2023/02/10 11:52:56;;;;;;;42.42;21.33;;;5.70;99.90;;;;;;4897737;29;20537;-75
2023/02/10 11:55:49;;;;;;;41.50;23.70;;;5.60;99.90;;;;;;4907374;29;20187;-75
2023/02/10 12:01:57;;;;;;;38.65;21.77;;;5.70;99.90;;;;;;4897245;29;20646;-76
2023/02/10 12:04:54;;;;;;;37.67;21.15;;;5.70;99.90;;;;;;4911898;29;20187;-75
2023/02/10 12:07:41;;;;;;;47.65;22.25;;;5.70;99.90;;;;;;4897560;29;20219;-74
2023/02/10 12:10:18;;;;;;;40.58;21.00;;;5.80;99.90;;;;;;4897512;29;20199;-75
2023/02/10 12:13:14;;;;;;;38.88;21.73;;;5.80;99.90;;;;;;4894804;29;20205;-73
2023/02/10 12:15:51;;;;;;;39.05;20.40;;;5.80;99.90;;;;;;4922313;29;20231;-75
2023/02/10 12:18:47;;;;;;;40.95;21.58;;;5.80;99.90;;;;;;4885476;29;20264;-73
2023/02/10 12:21:38;;;;;;;34.17;18.83;;;5.80;99.90;;;;;;4892968;29;20567;-73
2023/02/10 12:24:19;;;;;;;31.55;19.17;;;5.90;99.90;;;;;;4877965;29;20281;-76
2023/02/10 12:27:11;;;;;;;32.28;18.63;;;5.90;99.90;;;;;;4906549;29;20227;-74
2023/02/10 12:29:48;;;;;;;29.85;17.50;;;5.90;99.90;;;;;;4899192;29;20191;-73
2023/02/10 12:32:20;;;;;;;37.15;18.65;;;6.00;99.90;;;;;;4896221;29;20194;-74
2023/02/10 12:35:11;;;;;;;30.63;17.00;;;6.00;99.90;;;;;;4893629;29;20746;-74
2023/02/10 12:38:21;;;;;;;35.53;19.35;;;6.00;99.90;;;;;;4894148;29;20210;-74
2023/02/10 12:41:01;;;;;;;30.05;17.75;;;6.00;99.90;;;;;;4874215;29;21224;-72
2023/02/10 12:43:53;;;;;;;27.77;16.45;;;6.00;99.90;;;;;;4893577;29;20270;-75
2023/02/10 12:46:22;;;;;;;29.17;16.50;;;6.00;99.90;;;;;;4878405;29;20697;-69
2023/02/10 12:49:09;;;;;;;38.85;18.00;;;6.10;99.90;;;;;;4893687;29;20200;-71
2023/02/10 12:51:43;;;;;;;30.20;15.20;;;6.10;99.90;;;;;;4870767;29;20601;-72
2023/02/10 12:54:15;;;;;;;25.13;16.08;;;6.10;99.90;;;;;;4890425;29;20196;-72
2023/02/10 12:56:54;;;;;;;31.52;16.67;;;6.10;99.90;;;;;;4878673;29;20254;-72
2023/02/10 12:59:34;;;;;;;26.55;15.10;;;6.10;99.90;;;;;;4887086;29;20269;-72
2023/02/10 13:02:12;;;;;;;27.70;15.82;;;6.20;99.90;;;;;;4895996;29;20184;-73
2023/02/10 13:04:46;;;;;;;27.93;16.10;;;6.20;99.90;;;;;;4896555;29;20169;-74
2023/02/10 13:07:26;;;;;;;37.28;16.85;;;6.20;99.90;;;;;;4895484;29;20478;-73
2023/02/10 13:10:13;;;;;;;28.98;16.45;;;6.20;99.90;;;;;;4895863;29;20190;-71